sensor_id;sensor_type;location;lat;lon;timestamp;pressure;altitude;pressure_sealevel;temperature;humidity
51958;BME280;41120;51.820;20.804;2022-08-19T00:00:23;60446.28;;;-144.99;100.00
51958;BME280;41120;51.820;20.804;2022-08-19T00:03:03;60446.28;;;-144.99;100.00
51958;BME280;41120;51.820;20.804;2022-08-19T00:05:36;60446.28;;;-144.99;100.00
51958;BME280;41120;51.820;20.804;2022-08-19T00:08:35;60446.28;;;-144.99;100.00
51958;BME280;41120;51.820;20.804;2022-08-19T00:11:01;60446.28;;;-144.99;100.00
51958;BME280;41120;51.820;20.804;2022-08-19T00:13:30;60446.28;;;-144.99;100.00
51958;BME280;41120;51.820;20.804;2022-08-19T00:15:59;60446.28;;;-144.99;100.00
51958;BME280;41120;51.820;20.804;2022-08-19T00:18:36;60446.28;;;-144.99;100.00
51958;BME280;41120;51.820;20.804;2022-08-19T00:21:23;60446.28;;;-144.99;100.00
51958;BME280;41120;51.820;20.804;2022-08-19T00:24:04;60446.28;;;-144.99;100.00
51958;BME280;41120;51.820;20.804;2022-08-19T00:26:37;99189.31;;;19.39;100.00
51958;BME280;41120;51.820;20.804;2022-08-19T00:29:33;60446.28;;;-144.99;100.00
51958;BME280;41120;51.820;20.804;2022-08-19T00:31:59;60446.28;;;-144.99;100.00
51958;BME280;41120;51.820;20.804;2022-08-19T00:34:32;60446.28;;;-144.99;100.00
51958;BME280;41120;51.820;20.804;2022-08-19T00:37:17;60446.28;;;-144.99;100.00
51958;BME280;41120;51.820;20.804;2022-08-19T00:39:50;60446.28;;;-144.99;100.00
51958;BME280;41120;51.820;20.804;2022-08-19T00:42:24;60446.28;;;-144.99;100.00
51958;BME280;41120;51.820;20.804;2022-08-19T00:45:11;60446.28;;;-144.99;100.00
51958;BME280;41120;51.820;20.804;2022-08-19T00:47:47;60446.28;;;-144.99;100.00
51958;BME280;41120;51.820;20.804;2022-08-19T00:50:17;60446.28;;;-144.99;100.00
51958;BME280;41120;51.820;20.804;2022-08-19T00:52:54;60446.28;;;-144.99;100.00
51958;BME280;41120;51.820;20.804;2022-08-19T00:55:28;60446.28;;;-144.99;100.00
51958;BME280;41120;51.820;20.804;2022-08-19T00:58:09;60446.28;;;-144.99;100.00
51958;BME280;41120;51.820;20.804;2022-08-19T01:00:37;60446.28;;;-144.99;100.00
51958;BME280;41120;51.820;20.804;2022-08-19T01:03:08;60446.28;;;-144.99;100.00
51958;BME280;41120;51.820;20.804;2022-08-19T01:08:59;60446.28;;;-144.99;100.00
51958;BME280;41120;51.820;20.804;2022-08-19T01:11:27;60446.28;;;-144.99;100.00
51958;BME280;41120;51.820;20.804;2022-08-19T01:13:54;60446.28;;;-144.99;100.00
51958;BME280;41120;51.820;20.804;2022-08-19T01:16:29;60446.28;;;-144.99;100.00
51958;BME280;41120;51.820;20.804;2022-08-19T01:25:07;60446.28;;;-144.99;100.00
51958;BME280;41120;51.820;20.804;2022-08-19T01:30:17;60446.28;;;-144.99;100.00
51958;BME280;41120;51.820;20.804;2022-08-19T01:32:55;60446.28;;;-144.99;100.00
51958;BME280;41120;51.820;20.804;2022-08-19T01:35:31;60446.28;;;-144.99;100.00
51958;BME280;41120;51.820;20.804;2022-08-19T01:38:02;60446.28;;;-144.99;100.00
51958;BME280;41120;51.820;20.804;2022-08-19T01:40:39;60446.28;;;-144.99;100.00
51958;BME280;41120;51.820;20.804;2022-08-19T01:43:14;60446.28;;;-144.99;100.00
51958;BME280;41120;51.820;20.804;2022-08-19T01:45:43;60446.28;;;-144.99;100.00
51958;BME280;41120;51.820;20.804;2022-08-19T01:48:20;60446.28;;;-144.99;100.00
51958;BME280;41120;51.820;20.804;2022-08-19T01:50:55;60446.28;;;-144.99;100.00
51958;BME280;41120;51.820;20.804;2022-08-19T01:53:38;60446.28;;;-144.99;100.00
51958;BME280;41120;51.820;20.804;2022-08-19T01:56:07;60446.28;;;-144.99;100.00
51958;BME280;41120;51.820;20.804;2022-08-19T01:58:45;60446.28;;;-144.99;100.00
51958;BME280;41120;51.820;20.804;2022-08-19T02:01:28;60446.28;;;-144.99;100.00
51958;BME280;41120;51.820;20.804;2022-08-19T02:04:06;60446.28;;;-144.99;100.00
51958;BME280;41120;51.820;20.804;2022-08-19T02:06:58;60446.28;;;-144.99;100.00
51958;BME280;41120;51.820;20.804;2022-08-19T02:09:31;60446.28;;;-144.99;100.00
51958;BME280;41120;51.820;20.804;2022-08-19T02:11:57;60446.28;;;-144.99;100.00
51958;BME280;41120;51.820;20.804;2022-08-19T02:14:26;60446.28;;;-144.99;100.00
51958;BME280;41120;51.820;20.804;2022-08-19T02:16:57;60446.28;;;-144.99;100.00
51958;BME280;41120;51.820;20.804;2022-08-19T02:19:25;60446.28;;;-144.99;100.00
51958;BME280;41120;51.820;20.804;2022-08-19T02:25:26;60446.28;;;-144.99;100.00
51958;BME280;41120;51.820;20.804;2022-08-19T02:28:05;60446.28;;;-144.99;100.00
51958;BME280;41120;51.820;20.804;2022-08-19T02:30:38;60446.28;;;-144.99;100.00
51958;BME280;41120;51.820;20.804;2022-08-19T02:33:09;60446.28;;;-144.99;100.00
51958;BME280;41120;51.820;20.804;2022-08-19T02:35:45;60446.28;;;-144.99;100.00
51958;BME280;41120;51.820;20.804;2022-08-19T02:38:19;60446.28;;;-144.99;100.00
51958;BME280;41120;51.820;20.804;2022-08-19T02:41:01;60446.28;;;-144.99;100.00
51958;BME280;41120;51.820;20.804;2022-08-19T02:43:29;60446.28;;;-144.99;100.00
51958;BME280;41120;51.820;20.804;2022-08-19T02:45:57;60446.28;;;-144.99;100.00
51958;BME280;41120;51.820;20.804;2022-08-19T02:48:29;60446.28;;;-144.99;100.00
51958;BME280;41120;51.820;20.804;2022-08-19T02:51:29;60446.28;;;-144.99;100.00
51958;BME280;41120;51.820;20.804;2022-08-19T02:54:04;60446.28;;;-144.99;100.00
51958;BME280;41120;51.820;20.804;2022-08-19T02:56:31;60446.28;;;-144.99;100.00
51958;BME280;41120;51.820;20.804;2022-08-19T02:59:06;60446.28;;;-144.99;100.00
51958;BME280;41120;51.820;20.804;2022-08-19T03:01:52;60446.28;;;-144.99;100.00
51958;BME280;41120;51.820;20.804;2022-08-19T03:04:24;60446.28;;;-144.99;100.00
51958;BME280;41120;51.820;20.804;2022-08-19T03:07:04;60446.28;;;-144.99;100.00
51958;BME280;41120;51.820;20.804;2022-08-19T03:09:40;60446.28;;;-144.99;100.00
51958;BME280;41120;51.820;20.804;2022-08-19T03:12:08;60446.28;;;-144.99;100.00
51958;BME280;41120;51.820;20.804;2022-08-19T03:14:40;60446.28;;;-144.99;100.00
51958;BME280;41120;51.820;20.804;2022-08-19T03:17:06;60446.28;;;-144.99;100.00
51958;BME280;41120;51.820;20.804;2022-08-19T03:19:36;60446.28;;;-144.99;100.00
51958;BME280;41120;51.820;20.804;2022-08-19T03:22:19;60446.28;;;-144.99;100.00
51958;BME280;41120;51.820;20.804;2022-08-19T03:24:46;60446.28;;;-144.99;100.00
51958;BME280;41120;51.820;20.804;2022-08-19T03:27:29;60446.28;;;-144.99;100.00
51958;BME280;41120;51.820;20.804;2022-08-19T03:29:57;60446.28;;;-144.99;100.00
51958;BME280;41120;51.820;20.804;2022-08-19T03:32:45;60446.28;;;-144.99;100.00
51958;BME280;41120;51.820;20.804;2022-08-19T03:35:12;60446.28;;;-144.99;100.00
51958;BME280;41120;51.820;20.804;2022-08-19T03:37:39;60446.28;;;-144.99;100.00
51958;BME280;41120;51.820;20.804;2022-08-19T03:40:06;60446.28;;;-144.99;100.00
51958;BME280;41120;51.820;20.804;2022-08-19T03:42:38;60446.28;;;-144.99;100.00
51958;BME280;41120;51.820;20.804;2022-08-19T03:45:17;60446.28;;;-144.99;100.00
51958;BME280;41120;51.820;20.804;2022-08-19T03:48:13;60446.28;;;-144.99;100.00
51958;BME280;41120;51.820;20.804;2022-08-19T03:50:42;60446.28;;;-144.99;100.00
51958;BME280;41120;51.820;20.804;2022-08-19T03:53:40;60446.28;;;-144.99;100.00
51958;BME280;41120;51.820;20.804;2022-08-19T03:56:15;60446.28;;;-144.99;100.00
51958;BME280;41120;51.820;20.804;2022-08-19T03:58:55;60446.28;;;-144.99;100.00
51958;BME280;41120;51.820;20.804;2022-08-19T04:01:34;60446.28;;;-144.99;100.00
51958;BME280;41120;51.820;20.804;2022-08-19T04:04:01;60446.28;;;-144.99;100.00
51958;BME280;41120;51.820;20.804;2022-08-19T04:06:44;60446.28;;;-144.99;100.00
51958;BME280;41120;51.820;20.804;2022-08-19T04:09:16;60446.28;;;-144.99;100.00
51958;BME280;41120;51.820;20.804;2022-08-19T04:11:52;60446.28;;;-144.99;100.00
51958;BME280;41120;51.820;20.804;2022-08-19T04:14:24;60446.28;;;-144.99;100.00
51958;BME280;41120;51.820;20.804;2022-08-19T04:17:01;60446.28;;;-144.99;100.00
51958;BME280;41120;51.820;20.804;2022-08-19T04:19:31;60446.28;;;-144.99;100.00
51958;BME280;41120;51.820;20.804;2022-08-19T04:22:05;60446.28;;;-144.99;100.00
51958;BME280;41120;51.820;20.804;2022-08-19T04:24:34;60446.28;;;-144.99;100.00
51958;BME280;41120;51.820;20.804;2022-08-19T04:27:11;60446.28;;;-144.99;100.00
51958;BME280;41120;51.820;20.804;2022-08-19T04:29:58;60446.28;;;-144.99;100.00
51958;BME280;41120;51.820;20.804;2022-08-19T04:32:27;60446.28;;;-144.99;100.00
51958;BME280;41120;51.820;20.804;2022-08-19T04:35:01;60446.28;;;-144.99;100.00
51958;BME280;41120;51.820;20.804;2022-08-19T04:37:42;60446.28;;;-144.99;100.00
51958;BME280;41120;51.820;20.804;2022-08-19T04:40:16;60446.28;;;-144.99;100.00
51958;BME280;41120;51.820;20.804;2022-08-19T04:43:24;60446.28;;;-144.99;100.00
51958;BME280;41120;51.820;20.804;2022-08-19T04:45:57;60446.28;;;-144.99;100.00
51958;BME280;41120;51.820;20.804;2022-08-19T04:48:25;60446.28;;;-144.99;100.00
51958;BME280;41120;51.820;20.804;2022-08-19T04:50:56;60446.28;;;-144.99;100.00
51958;BME280;41120;51.820;20.804;2022-08-19T04:53:29;60446.28;;;-144.99;100.00
51958;BME280;41120;51.820;20.804;2022-08-19T04:55:59;60446.28;;;-144.99;100.00
51958;BME280;41120;51.820;20.804;2022-08-19T04:58:43;60446.28;;;-144.99;100.00
51958;BME280;41120;51.820;20.804;2022-08-19T05:01:27;60446.28;;;-144.99;100.00
51958;BME280;41120;51.820;20.804;2022-08-19T05:04:01;60446.28;;;-144.99;100.00
51958;BME280;41120;51.820;20.804;2022-08-19T05:06:31;60446.28;;;-144.99;100.00
51958;BME280;41120;51.820;20.804;2022-08-19T05:09:04;60446.28;;;-144.99;100.00
51958;BME280;41120;51.820;20.804;2022-08-19T05:11:35;60446.28;;;-144.99;100.00
51958;BME280;41120;51.820;20.804;2022-08-19T05:17:26;60446.28;;;-144.99;100.00
51958;BME280;41120;51.820;20.804;2022-08-19T05:20:03;60446.28;;;-144.99;100.00
51958;BME280;41120;51.820;20.804;2022-08-19T05:22:50;60446.28;;;-144.99;100.00
51958;BME280;41120;51.820;20.804;2022-08-19T05:25:30;60446.28;;;-144.99;100.00
51958;BME280;41120;51.820;20.804;2022-08-19T05:28:05;60446.28;;;-144.99;100.00
51958;BME280;41120;51.820;20.804;2022-08-19T05:30:32;60446.28;;;-144.99;100.00
51958;BME280;41120;51.820;20.804;2022-08-19T05:33:02;60446.28;;;-144.99;100.00
51958;BME280;41120;51.820;20.804;2022-08-19T05:35:36;60446.28;;;-144.99;100.00
51958;BME280;41120;51.820;20.804;2022-08-19T05:38:22;60446.28;;;-144.99;100.00
51958;BME280;41120;51.820;20.804;2022-08-19T05:40:49;60446.28;;;-144.99;100.00
51958;BME280;41120;51.820;20.804;2022-08-19T05:43:33;60446.28;;;-144.99;100.00
51958;BME280;41120;51.820;20.804;2022-08-19T05:46:06;60446.28;;;-144.99;100.00
51958;BME280;41120;51.820;20.804;2022-08-19T05:48:35;60446.28;;;-144.99;100.00
51958;BME280;41120;51.820;20.804;2022-08-19T05:51:07;60446.28;;;-144.99;100.00
51958;BME280;41120;51.820;20.804;2022-08-19T05:54:09;60446.28;;;-144.99;100.00
51958;BME280;41120;51.820;20.804;2022-08-19T05:56:40;60446.28;;;-144.99;100.00
51958;BME280;41120;51.820;20.804;2022-08-19T05:59:13;60446.28;;;-144.99;100.00
51958;BME280;41120;51.820;20.804;2022-08-19T06:01:55;60446.28;;;-144.99;100.00
51958;BME280;41120;51.820;20.804;2022-08-19T06:04:25;60446.28;;;-144.99;100.00
51958;BME280;41120;51.820;20.804;2022-08-19T06:06:53;60446.28;;;-144.99;100.00
51958;BME280;41120;51.820;20.804;2022-08-19T06:09:34;60446.28;;;-144.99;100.00
51958;BME280;41120;51.820;20.804;2022-08-19T06:12:00;60446.28;;;-144.99;100.00
51958;BME280;41120;51.820;20.804;2022-08-19T06:14:35;60446.28;;;-144.99;100.00
51958;BME280;41120;51.820;20.804;2022-08-19T06:17:01;60446.28;;;-144.99;100.00
51958;BME280;41120;51.820;20.804;2022-08-19T06:19:30;60446.28;;;-144.99;100.00
51958;BME280;41120;51.820;20.804;2022-08-19T06:21:58;60446.28;;;-144.99;100.00
51958;BME280;41120;51.820;20.804;2022-08-19T06:24:26;60446.28;;;-144.99;100.00
51958;BME280;41120;51.820;20.804;2022-08-19T06:26:56;60446.28;;;-144.99;100.00
51958;BME280;41120;51.820;20.804;2022-08-19T06:29:24;60446.28;;;-144.99;100.00
51958;BME280;41120;51.820;20.804;2022-08-19T06:31:52;60446.28;;;-144.99;100.00
51958;BME280;41120;51.820;20.804;2022-08-19T06:34:32;60446.28;;;-144.99;100.00
51958;BME280;41120;51.820;20.804;2022-08-19T06:36:59;60446.28;;;-144.99;100.00
51958;BME280;41120;51.820;20.804;2022-08-19T06:39:37;60446.28;;;-144.99;100.00
51958;BME280;41120;51.820;20.804;2022-08-19T06:42:06;60446.28;;;-144.99;100.00
51958;BME280;41120;51.820;20.804;2022-08-19T06:44:36;60446.28;;;-144.99;100.00
51958;BME280;41120;51.820;20.804;2022-08-19T06:47:07;60446.28;;;-144.99;100.00
51958;BME280;41120;51.820;20.804;2022-08-19T06:49:49;60446.28;;;-144.99;100.00
51958;BME280;41120;51.820;20.804;2022-08-19T06:52:21;60446.28;;;-144.99;100.00
51958;BME280;41120;51.820;20.804;2022-08-19T06:54:58;60446.28;;;-144.99;100.00
51958;BME280;41120;51.820;20.804;2022-08-19T06:57:35;60446.28;;;-144.99;100.00
51958;BME280;41120;51.820;20.804;2022-08-19T07:00:35;60446.28;;;-144.99;100.00
51958;BME280;41120;51.820;20.804;2022-08-19T07:03:20;60446.28;;;-144.99;100.00
51958;BME280;41120;51.820;20.804;2022-08-19T07:06:14;60446.28;;;-144.99;100.00
51958;BME280;41120;51.820;20.804;2022-08-19T07:09:05;60446.28;;;-144.99;100.00
51958;BME280;41120;51.820;20.804;2022-08-19T07:11:31;60446.28;;;-144.99;100.00
51958;BME280;41120;51.820;20.804;2022-08-19T07:14:05;60446.28;;;-144.99;100.00
51958;BME280;41120;51.820;20.804;2022-08-19T07:16:38;60446.28;;;-144.99;100.00
51958;BME280;41120;51.820;20.804;2022-08-19T07:19:12;60446.28;;;-144.99;100.00
51958;BME280;41120;51.820;20.804;2022-08-19T07:21:49;60446.28;;;-144.99;100.00
51958;BME280;41120;51.820;20.804;2022-08-19T07:24:24;60446.28;;;-144.99;100.00
51958;BME280;41120;51.820;20.804;2022-08-19T07:26:58;60446.28;;;-144.99;100.00
51958;BME280;41120;51.820;20.804;2022-08-19T07:29:28;60446.28;;;-144.99;100.00
51958;BME280;41120;51.820;20.804;2022-08-19T07:31:56;60446.28;;;-144.99;100.00
51958;BME280;41120;51.820;20.804;2022-08-19T07:34:27;60446.28;;;-144.99;100.00
51958;BME280;41120;51.820;20.804;2022-08-19T07:36:57;60446.28;;;-144.99;100.00
51958;BME280;41120;51.820;20.804;2022-08-19T07:39:29;60446.28;;;-144.99;100.00
51958;BME280;41120;51.820;20.804;2022-08-19T07:42:11;60446.28;;;-144.99;100.00
51958;BME280;41120;51.820;20.804;2022-08-19T07:44:43;60446.28;;;-144.99;100.00
51958;BME280;41120;51.820;20.804;2022-08-19T07:47:26;60446.28;;;-144.99;100.00
51958;BME280;41120;51.820;20.804;2022-08-19T07:50:00;60446.28;;;-144.99;100.00
51958;BME280;41120;51.820;20.804;2022-08-19T07:52:26;60446.28;;;-144.99;100.00
51958;BME280;41120;51.820;20.804;2022-08-19T07:54:56;60446.28;;;-144.99;100.00
51958;BME280;41120;51.820;20.804;2022-08-19T07:57:29;60446.28;;;-144.99;100.00
51958;BME280;41120;51.820;20.804;2022-08-19T08:00:07;60446.28;;;-144.99;100.00
51958;BME280;41120;51.820;20.804;2022-08-19T08:02:36;60446.28;;;-144.99;100.00
51958;BME280;41120;51.820;20.804;2022-08-19T08:05:08;60446.28;;;-144.99;100.00
51958;BME280;41120;51.820;20.804;2022-08-19T08:07:56;60446.28;;;-144.99;100.00
51958;BME280;41120;51.820;20.804;2022-08-19T08:10:41;60446.28;;;-144.99;100.00
51958;BME280;41120;51.820;20.804;2022-08-19T08:13:19;60446.28;;;-144.99;100.00
51958;BME280;41120;51.820;20.804;2022-08-19T08:15:46;60446.28;;;-144.99;100.00
51958;BME280;41120;51.820;20.804;2022-08-19T08:18:38;60446.28;;;-144.99;100.00
51958;BME280;41120;51.820;20.804;2022-08-19T08:21:07;60446.28;;;-144.99;100.00
51958;BME280;41120;51.820;20.804;2022-08-19T08:23:45;60446.28;;;-144.99;100.00
51958;BME280;41120;51.820;20.804;2022-08-19T08:27:36;99237.72;;;29.31;76.75
51958;BME280;41120;51.820;20.804;2022-08-19T08:30:08;99222.06;;;28.82;76.16
51958;BME280;41120;51.820;20.804;2022-08-19T08:32:38;99221.84;;;29.00;72.77
51958;BME280;41120;51.820;20.804;2022-08-19T08:35:11;99213.03;;;29.05;75.41
51958;BME280;41120;51.820;20.804;2022-08-19T08:37:38;99227.59;;;29.38;73.00
51958;BME280;41120;51.820;20.804;2022-08-19T08:40:21;99227.06;;;29.75;70.72
51958;BME280;41120;51.820;20.804;2022-08-19T08:43:19;99247.28;;;29.55;69.57
51958;BME280;41120;51.820;20.804;2022-08-19T08:48:40;99255.94;;;29.57;68.17
51958;BME280;41120;51.820;20.804;2022-08-19T08:51:32;99251.41;;;29.41;67.26
51958;BME280;41120;51.820;20.804;2022-08-19T08:54:09;99250.03;;;29.60;66.71
51958;BME280;41120;51.820;20.804;2022-08-19T08:56:45;99250.03;;;29.60;66.71
51958;BME280;41120;51.820;20.804;2022-08-19T09:02:07;60446.28;;;-144.99;100.00
51958;BME280;41120;51.820;20.804;2022-08-19T09:04:40;60446.28;;;-144.99;100.00
51958;BME280;41120;51.820;20.804;2022-08-19T09:07:25;60446.28;;;-144.99;100.00
51958;BME280;41120;51.820;20.804;2022-08-19T09:10:07;99269.75;;;30.17;64.36
51958;BME280;41120;51.820;20.804;2022-08-19T09:13:11;60446.28;;;-144.99;100.00
51958;BME280;41120;51.820;20.804;2022-08-19T09:15:49;99269.75;;;30.17;64.36
51958;BME280;41120;51.820;20.804;2022-08-19T09:18:24;99264.00;;;29.91;64.23
51958;BME280;41120;51.820;20.804;2022-08-19T09:21:04;99258.56;;;30.08;65.99
51958;BME280;41120;51.820;20.804;2022-08-19T09:23:48;99258.56;;;30.08;65.99
51958;BME280;41120;51.820;20.804;2022-08-19T09:26:16;60446.28;;;-144.99;100.00
51958;BME280;41120;51.820;20.804;2022-08-19T09:28:48;60446.28;;;-144.99;100.00
51958;BME280;41120;51.820;20.804;2022-08-19T09:31:26;60446.28;;;-144.99;100.00
51958;BME280;41120;51.820;20.804;2022-08-19T09:34:00;60446.28;;;-144.99;100.00
51958;BME280;41120;51.820;20.804;2022-08-19T09:36:32;60446.28;;;-144.99;100.00
51958;BME280;41120;51.820;20.804;2022-08-19T09:38:59;60446.28;;;-144.99;100.00
51958;BME280;41120;51.820;20.804;2022-08-19T09:41:30;60446.28;;;-144.99;100.00
51958;BME280;41120;51.820;20.804;2022-08-19T09:43:59;60446.28;;;-144.99;100.00
51958;BME280;41120;51.820;20.804;2022-08-19T09:46:27;60446.28;;;-144.99;100.00
51958;BME280;41120;51.820;20.804;2022-08-19T09:49:05;60446.28;;;-144.99;100.00
51958;BME280;41120;51.820;20.804;2022-08-19T09:51:35;60446.28;;;-144.99;100.00
51958;BME280;41120;51.820;20.804;2022-08-19T09:54:11;60446.28;;;-144.99;100.00
51958;BME280;41120;51.820;20.804;2022-08-19T09:56:37;60446.28;;;-144.99;100.00
51958;BME280;41120;51.820;20.804;2022-08-19T09:59:03;60446.28;;;-144.99;100.00
51958;BME280;41120;51.820;20.804;2022-08-19T10:01:31;60446.28;;;-144.99;100.00
51958;BME280;41120;51.820;20.804;2022-08-19T10:04:04;60446.28;;;-144.99;100.00
51958;BME280;41120;51.820;20.804;2022-08-19T10:06:42;60446.28;;;-144.99;100.00
51958;BME280;41120;51.820;20.804;2022-08-19T10:09:22;60446.28;;;-144.99;100.00
51958;BME280;41120;51.820;20.804;2022-08-19T10:11:48;60446.28;;;-144.99;100.00
51958;BME280;41120;51.820;20.804;2022-08-19T10:14:23;99254.78;;;31.02;60.32
51958;BME280;41120;51.820;20.804;2022-08-19T10:17:11;99264.66;;;29.98;62.00
51958;BME280;41120;51.820;20.804;2022-08-19T10:19:52;99246.53;;;30.38;61.03
51958;BME280;41120;51.820;20.804;2022-08-19T10:22:24;60446.28;;;-144.99;100.00
51958;BME280;41120;51.820;20.804;2022-08-19T10:24:52;60446.28;;;-144.99;100.00
51958;BME280;41120;51.820;20.804;2022-08-19T10:27:29;60446.28;;;-144.99;100.00
51958;BME280;41120;51.820;20.804;2022-08-19T10:29:58;60446.28;;;-144.99;100.00
51958;BME280;41120;51.820;20.804;2022-08-19T10:32:47;60446.28;;;-144.99;100.00
51958;BME280;41120;51.820;20.804;2022-08-19T10:35:32;60446.28;;;-144.99;100.00
51958;BME280;41120;51.820;20.804;2022-08-19T10:38:12;60446.28;;;-144.99;100.00
51958;BME280;41120;51.820;20.804;2022-08-19T10:40:44;99249.59;;;30.96;58.68
51958;BME280;41120;51.820;20.804;2022-08-19T10:43:15;99249.59;;;30.96;58.68
51958;BME280;41120;51.820;20.804;2022-08-19T10:45:54;99246.16;;;31.05;57.65
51958;BME280;41120;51.820;20.804;2022-08-19T10:48:25;99240.19;;;30.76;58.45
51958;BME280;41120;51.820;20.804;2022-08-19T10:51:01;99238.03;;;30.78;56.32
51958;BME280;41120;51.820;20.804;2022-08-19T10:53:50;60446.28;;;-144.99;100.00
51958;BME280;41120;51.820;20.804;2022-08-19T10:56:25;60446.28;;;-144.99;100.00
51958;BME280;41120;51.820;20.804;2022-08-19T10:59:15;60446.28;;;-144.99;100.00
51958;BME280;41120;51.820;20.804;2022-08-19T11:02:04;60446.28;;;-144.99;100.00
51958;BME280;41120;51.820;20.804;2022-08-19T11:04:32;60446.28;;;-144.99;100.00
51958;BME280;41120;51.820;20.804;2022-08-19T11:07:07;60446.28;;;-144.99;100.00
51958;BME280;41120;51.820;20.804;2022-08-19T11:09:40;60446.28;;;-144.99;100.00
51958;BME280;41120;51.820;20.804;2022-08-19T11:12:22;60446.28;;;-144.99;100.00
51958;BME280;41120;51.820;20.804;2022-08-19T11:14:58;99238.03;;;30.78;56.32
51958;BME280;41120;51.820;20.804;2022-08-19T11:17:27;99215.09;;;31.08;58.85
51958;BME280;41120;51.820;20.804;2022-08-19T11:20:02;99207.56;;;31.15;59.26
51958;BME280;41120;51.820;20.804;2022-08-19T11:22:33;99210.97;;;31.00;58.95
51958;BME280;41120;51.820;20.804;2022-08-19T11:25:03;99215.16;;;31.18;55.93
51958;BME280;41120;51.820;20.804;2022-08-19T11:27:30;99208.13;;;31.17;57.42
51958;BME280;41120;51.820;20.804;2022-08-19T11:29:56;99208.53;;;31.36;54.32
51958;BME280;41120;51.820;20.804;2022-08-19T11:32:25;99194.72;;;31.38;56.84
51958;BME280;41120;51.820;20.804;2022-08-19T11:34:58;99192.13;;;31.10;56.66
51958;BME280;41120;51.820;20.804;2022-08-19T11:37:25;99194.22;;;31.03;58.16
51958;BME280;41120;51.820;20.804;2022-08-19T11:39:58;99195.84;;;31.04;55.79
51958;BME280;41120;51.820;20.804;2022-08-19T11:42:27;99189.22;;;31.22;54.14
51958;BME280;41120;51.820;20.804;2022-08-19T11:45:24;99191.00;;;30.79;57.19
51958;BME280;41120;51.820;20.804;2022-08-19T11:47:51;99194.19;;;31.35;54.08
51958;BME280;41120;51.820;20.804;2022-08-19T11:50:19;99179.66;;;31.42;53.77
51958;BME280;41120;51.820;20.804;2022-08-19T11:52:45;99180.66;;;31.35;55.87
51958;BME280;41120;51.820;20.804;2022-08-19T11:55:22;60446.28;;;-144.99;100.00
51958;BME280;41120;51.820;20.804;2022-08-19T11:57:54;60446.28;;;-144.99;100.00
51958;BME280;41120;51.820;20.804;2022-08-19T12:00:25;99180.66;;;31.35;55.87
51958;BME280;41120;51.820;20.804;2022-08-19T12:02:51;99180.66;;;31.35;55.87
51958;BME280;41120;51.820;20.804;2022-08-19T12:05:31;99172.41;;;31.58;56.11
51958;BME280;41120;51.820;20.804;2022-08-19T12:08:03;99172.41;;;31.58;56.11
51958;BME280;41120;51.820;20.804;2022-08-19T12:10:37;99172.41;;;31.58;56.11
51958;BME280;41120;51.820;20.804;2022-08-19T12:13:05;99176.00;;;31.31;54.27
51958;BME280;41120;51.820;20.804;2022-08-19T12:15:40;99172.13;;;31.54;57.52
51958;BME280;41120;51.820;20.804;2022-08-19T12:18:16;99169.09;;;31.08;54.36
51958;BME280;41120;51.820;20.804;2022-08-19T12:20:53;99173.00;;;31.22;52.71
51958;BME280;41120;51.820;20.804;2022-08-19T12:23:24;99168.19;;;31.29;55.33
51958;BME280;41120;51.820;20.804;2022-08-19T12:25:50;99162.28;;;31.38;52.21
51958;BME280;41120;51.820;20.804;2022-08-19T12:28:49;99165.09;;;31.16;52.59
51958;BME280;41120;51.820;20.804;2022-08-19T12:31:20;99160.78;;;31.14;52.86
51958;BME280;41120;51.820;20.804;2022-08-19T12:33:50;99157.13;;;30.99;53.19
51958;BME280;41120;51.820;20.804;2022-08-19T12:36:25;99151.22;;;31.39;53.79
51958;BME280;41120;51.820;20.804;2022-08-19T12:38:55;99154.16;;;31.38;51.71
51958;BME280;41120;51.820;20.804;2022-08-19T12:41:23;99153.66;;;31.41;52.63
51958;BME280;41120;51.820;20.804;2022-08-19T12:43:54;99149.34;;;31.45;52.64
51958;BME280;41120;51.820;20.804;2022-08-19T12:53:31;99141.59;;;31.21;53.47
51958;BME280;41120;51.820;20.804;2022-08-19T12:55:59;99143.56;;;31.31;52.32
51958;BME280;41120;51.820;20.804;2022-08-19T12:58:27;99147.44;;;31.03;52.78
51958;BME280;41120;51.820;20.804;2022-08-19T13:01:10;99143.78;;;31.19;52.56
51958;BME280;41120;51.820;20.804;2022-08-19T13:03:38;99140.56;;;31.27;55.16
51958;BME280;41120;51.820;20.804;2022-08-19T13:06:04;99151.38;;;31.22;52.90
51958;BME280;41120;51.820;20.804;2022-08-19T13:08:30;99138.16;;;31.31;51.91
51958;BME280;41120;51.820;20.804;2022-08-19T13:11:17;99136.94;;;31.11;52.38
51958;BME280;41120;51.820;20.804;2022-08-19T13:14:10;99132.88;;;31.09;52.78
51958;BME280;41120;51.820;20.804;2022-08-19T13:16:37;99129.09;;;31.10;52.11
51958;BME280;41120;51.820;20.804;2022-08-19T13:19:04;99132.81;;;30.99;53.51
51958;BME280;41120;51.820;20.804;2022-08-19T13:21:33;99135.31;;;31.10;54.13
51958;BME280;41120;51.820;20.804;2022-08-19T13:24:08;99130.72;;;31.11;52.16
51958;BME280;41120;51.820;20.804;2022-08-19T13:26:50;99136.13;;;31.11;55.79
51958;BME280;41120;51.820;20.804;2022-08-19T13:29:19;99136.66;;;31.08;55.76
51958;BME280;41120;51.820;20.804;2022-08-19T13:32:07;99134.00;;;31.13;53.29
51958;BME280;41120;51.820;20.804;2022-08-19T13:34:58;99134.59;;;31.25;53.82
51958;BME280;41120;51.820;20.804;2022-08-19T13:37:41;99146.50;;;31.24;54.13
51958;BME280;41120;51.820;20.804;2022-08-19T13:40:16;99137.25;;;31.15;53.68